Time;durP1;ratioP1;P1;durP2;ratioP2;P2;SDS_P1;SDS_P2;PMS_P1;PMS_P2;Temp;Humidity;BMP_temperature;BMP_pressure;BME280_temperature;BME280_humidity;BME280_pressure;Samples;Min_cycle;Max_cycle;Signal;HPM_P1;HPM_P2
2022/02/15 00:00:31;;;;;;;7.40;1.77;;;;;;;-149.78;100.00;50537.94;5054523;28;20041;-63
2022/02/15 00:02:57;;;;;;;11.48;1.90;;;;;;;-149.78;100.00;50537.94;5054381;28;20481;-63
2022/02/15 00:05:22;;;;;;;9.27;2.63;;;;;;;-149.78;100.00;50565.31;5054515;28;20041;-63
2022/02/15 00:07:48;;;;;;;12.10;2.10;;;;;;;-149.78;100.00;50569.22;5053223;28;20076;-63
2022/02/15 00:10:15;;;;;;;8.23;1.80;;;;;;;-149.78;100.00;50524.25;5054138;28;20045;-63
2022/02/15 00:12:41;;;;;;;8.18;2.20;;;;;;;-149.78;100.00;50506.66;5054571;28;20048;-63
2022/02/15 00:15:09;;;;;;;11.65;2.60;;;;;;;-149.78;100.00;50537.94;5054495;28;20388;-63
2022/02/15 00:17:39;;;;;;;12.60;2.00;;;;;;;-149.78;100.00;50537.94;5054404;28;20484;-63
2022/02/15 00:20:07;;;;;;;12.95;1.88;;;;;;;-149.78;100.00;50526.22;5054202;28;20097;-63
2022/02/15 00:22:33;;;;;;;11.95;2.47;;;;;;;-149.78;100.00;50573.16;5054629;28;20133;-63
2022/02/15 00:24:59;;;;;;;13.70;2.30;;;;;;;-149.78;100.00;50526.22;5054287;28;20041;-64
2022/02/15 00:27:24;;;;;;;12.27;2.10;;;;;;;-149.78;100.00;50532.06;5054171;28;20045;-64
2022/02/15 00:29:50;;;;;;;10.52;2.15;;;;;;;-149.78;100.00;50520.34;5054131;28;20029;-64
2022/02/15 00:32:15;;;;;;;14.48;2.53;;;;;;;-149.78;100.00;50553.59;5053972;28;20154;-64
2022/02/15 00:34:41;;;;;;;6.90;2.08;;;;;;;-149.78;100.00;50541.84;5054032;28;20110;-63
2022/02/15 00:37:07;;;;;;;11.25;2.10;;;;;;;-149.78;100.00;50526.22;5054181;28;20048;-64
2022/02/15 00:39:33;;;;;;;9.43;2.25;;;;;;;-149.78;100.00;50541.84;5053846;28;20095;-63
2022/02/15 00:41:59;;;;;;;9.75;1.65;;;;;;;-149.78;100.00;50526.22;5052997;28;20044;-63
2022/02/15 00:44:26;;;;;;;6.35;1.90;;;;;;;-149.78;100.00;50573.16;5053996;28;20108;-63
2022/02/15 00:46:53;;;;;;;11.55;2.08;;;;;;;-149.78;100.00;50522.28;5053906;28;20484;-63
2022/02/15 00:49:22;;;;;;;12.85;2.08;;;;;;;-149.78;100.00;50577.06;5053683;28;20036;-63
2022/02/15 00:51:48;;;;;;;8.77;1.80;;;;;;;-149.78;100.00;50541.84;5052945;28;20043;-63
2022/02/15 00:54:14;;;;;;;7.25;1.60;;;;;;;-149.78;100.00;50537.94;5053337;28;20124;-63
2022/02/15 00:56:40;;;;;;;12.23;2.58;;;;;;;-149.78;100.00;50577.06;5053317;28;20039;-63
2022/02/15 00:59:06;;;;;;;11.52;1.98;;;;;;;-149.78;100.00;50569.22;5051897;28;20047;-63
2022/02/15 01:01:33;;;;;;;5.57;1.30;;;;;;;-149.78;100.00;50530.13;5053255;28;20484;-63
2022/02/15 01:03:58;;;;;;;9.90;1.58;;;;;;;-149.78;100.00;50624.00;5051892;28;20481;-63
2022/02/15 01:06:24;;;;;;;8.02;1.60;;;;;;;-149.78;100.00;50561.41;5053128;28;20043;-63
2022/02/15 01:08:49;;;;;;;9.38;1.70;;;;;;;-149.78;100.00;50573.16;5053003;28;20473;-63
2022/02/15 01:11:15;;;;;;;5.13;1.40;;;;;;;-149.78;100.00;50561.41;5052884;28;20095;-63
2022/02/15 01:13:40;;;;;;;8.95;1.35;;;;;;;-149.78;100.00;50526.22;5051973;28;20075;-63
2022/02/15 01:16:07;;;;;;;12.02;1.50;;;;;;;-149.78;100.00;50524.25;5053011;28;20033;-63
2022/02/15 01:18:33;;;;;;;6.63;1.38;;;;;;;-149.78;100.00;50551.63;5052724;28;20041;-63
2022/02/15 01:20:58;;;;;;;7.15;1.80;;;;;;;-149.78;100.00;50528.16;5052755;28;20180;-63
2022/02/15 01:23:24;;;;;;;5.63;1.50;;;;;;;-149.78;100.00;50573.16;5053257;28;20060;-63
2022/02/15 01:25:50;;;;;;;5.18;1.38;;;;;;;-149.78;100.00;50557.50;5053248;28;20043;-63
2022/02/15 01:28:16;;;;;;;12.65;2.13;;;;;;;-149.78;100.00;50561.41;5052906;28;20047;-63
2022/02/15 01:30:42;;;;;;;7.28;1.98;;;;;;;-149.78;100.00;50545.75;5052856;28;20095;-63
2022/02/15 01:33:07;;;;;;;5.68;1.70;;;;;;;-149.78;100.00;50541.84;5051729;28;20045;-63
2022/02/15 01:35:33;;;;;;;9.82;1.40;;;;;;;-149.78;100.00;50539.91;5053015;28;20045;-63
2022/02/15 01:37:59;;;;;;;10.85;1.80;;;;;;;-149.78;100.00;50545.75;5052932;28;20049;-63
2022/02/15 01:40:25;;;;;;;9.15;1.60;;;;;;;-149.78;100.00;50584.88;5052833;28;20043;-63
2022/02/15 01:42:50;;;;;;;7.95;1.60;;;;;;;-149.78;100.00;50528.16;5053034;28;20098;-63
2022/02/15 01:45:18;;;;;;;10.30;2.00;;;;;;;-149.78;100.00;50526.22;5052968;28;20465;-63
2022/02/15 01:47:45;;;;;;;11.45;2.67;;;;;;;-149.78;100.00;50522.28;5053009;28;20037;-63
2022/02/15 01:50:12;;;;;;;16.02;4.07;;;;;;;-149.78;100.00;50526.22;5052717;28;20070;-63
2022/02/15 01:52:38;;;;;;;19.25;5.95;;;;;;;-149.78;100.00;50557.50;5053109;28;20036;-63
2022/02/15 01:55:06;;;;;;;16.80;6.72;;;;;;;-149.78;100.00;50541.84;5056950;28;20040;-63
2022/02/15 01:57:33;;;;;;;23.52;5.88;;;;;;;-149.78;100.00;50522.28;5056965;28;20051;-63
2022/02/15 01:59:59;;;;;;;20.95;5.70;;;;;;;-149.78;100.00;50522.28;5056694;28;20132;-63
2022/02/15 02:02:26;;;;;;;15.60;5.32;;;;;;;-149.78;100.00;50547.72;5056731;28;20044;-63
2022/02/15 02:07:37;;;;;;;13.77;4.53;;;;;;;-149.78;100.00;50590.75;5041636;28;20029;-63
2022/02/15 02:10:05;;;;;;;20.42;5.10;;;;;;;-149.78;100.00;50565.31;5043602;28;20032;-63
2022/02/15 02:12:30;;;;;;;12.05;4.50;;;;;;;-149.78;100.00;50549.69;5056340;28;20049;-63
2022/02/15 02:15:00;;;;;;;13.98;4.45;;;;;;;-149.78;100.00;50569.22;5046698;28;20044;-64
2022/02/15 02:17:27;;;;;;;8.23;3.58;;;;;;;-149.78;100.00;50557.50;5055288;28;20493;-63
2022/02/15 02:19:54;;;;;;;13.90;4.18;;;;;;;-149.78;100.00;50557.50;5056468;28;20079;-63
2022/02/15 02:22:27;;;;;;;13.60;4.50;;;;;;;-149.78;100.00;50518.38;5056515;28;20049;-63
2022/02/15 02:24:57;;;;;;;11.55;3.42;;;;;;;-149.78;100.00;50534.03;5056075;28;20484;-63
2022/02/15 02:27:25;;;;;;;9.57;3.03;;;;;;;-149.78;100.00;50559.47;5056055;28;20028;-63
2022/02/15 02:29:51;;;;;;;6.93;3.10;;;;;;;-149.78;100.00;50573.16;5054913;28;20129;-63
2022/02/15 02:32:26;;;;;;;14.55;5.15;;;;;;;-149.78;100.00;50535.97;5055995;28;20128;-63
2022/02/15 02:34:53;;;;;;;11.90;3.20;;;;;;;-149.78;100.00;50514.47;5043630;28;20044;-63
2022/02/15 02:37:18;;;;;;;13.27;3.60;;;;;;;-149.78;100.00;50537.94;5036022;28;20040;-63
2022/02/15 02:39:47;;;;;;;8.35;3.22;;;;;;;-149.78;100.00;50557.50;5035995;28;20041;-63
2022/02/15 02:42:13;;;;;;;9.48;3.15;;;;;;;-149.78;100.00;50545.75;5035936;28;20033;-63
2022/02/15 02:44:39;;;;;;;8.52;2.65;;;;;;;-149.78;100.00;50522.28;5035799;28;20129;-63
2022/02/15 02:47:08;;;;;;;4.13;2.20;;;;;;;-149.78;100.00;50573.16;5034578;28;20128;-63
2022/02/15 02:49:34;;;;;;;8.23;2.20;;;;;;;-149.78;100.00;50557.50;5045775;28;20056;-63
2022/02/15 02:52:00;;;;;;;5.80;1.88;;;;;;;-149.78;100.00;50565.31;5055612;28;20053;-63
2022/02/15 02:54:26;;;;;;;13.30;3.05;;;;;;;-149.78;100.00;50537.94;5055646;28;20445;-63
2022/02/15 02:56:53;;;;;;;7.10;1.80;;;;;;;-149.78;100.00;50530.13;5055623;28;20116;-63
2022/02/15 02:59:19;;;;;;;7.53;1.83;;;;;;;-149.78;100.00;50534.03;5052319;28;20045;-62
2022/02/15 03:01:45;;;;;;;18.35;2.50;;;;;;;-149.78;100.00;50539.91;5055325;28;20061;-63
2022/02/15 03:04:10;;;;;;;6.50;1.70;;;;;;;-149.78;100.00;50541.84;5055359;28;20472;-63
2022/02/15 03:06:36;;;;;;;8.13;1.90;;;;;;;-149.78;100.00;50522.28;5055007;28;20041;-63
2022/02/15 03:09:02;;;;;;;5.53;1.48;;;;;;;-149.78;100.00;50557.50;5055812;28;20061;-63
2022/02/15 03:11:28;;;;;;;6.35;1.33;;;;;;;-149.78;100.00;50522.28;5055628;28;20488;-63
2022/02/15 03:13:53;;;;;;;4.35;1.60;;;;;;;-149.78;100.00;50551.63;5055322;28;20037;-63
2022/02/15 03:16:19;;;;;;;7.22;1.85;;;;;;;-149.78;100.00;50549.69;5054128;28;20052;-63
2022/02/15 03:18:44;;;;;;;9.10;1.95;;;;;;;-149.78;100.00;50573.16;5055657;28;20033;-63
2022/02/15 03:21:10;;;;;;;4.82;1.40;;;;;;;-149.78;100.00;50522.28;5055417;28;20051;-63
2022/02/15 03:23:36;;;;;;;4.10;1.88;;;;;;;-149.78;100.00;50561.41;5055345;28;20037;-63
2022/02/15 03:26:02;;;;;;;4.65;1.50;;;;;;;-149.78;100.00;50537.94;5055590;28;20377;-63
2022/02/15 03:28:27;;;;;;;7.95;1.60;;;;;;;-149.78;100.00;50584.88;5055451;28;20033;-63
2022/02/15 03:30:53;;;;;;;6.72;1.50;;;;;;;-149.78;100.00;50565.31;5055179;28;20431;-63
2022/02/15 03:33:19;;;;;;;5.82;1.73;;;;;;;-149.78;100.00;50565.31;5055091;28;20578;-63
2022/02/15 03:35:44;;;;;;;5.47;1.73;;;;;;;-149.78;100.00;50573.16;5055233;28;20116;-63
2022/02/15 03:38:10;;;;;;;5.72;1.80;;;;;;;-149.78;100.00;50565.31;5054725;28;20490;-63
2022/02/15 03:43:21;;;;;;;7.20;1.80;;;;;;;-149.78;100.00;50537.94;5055155;28;20094;-63
2022/02/15 03:45:49;;;;;;;6.20;2.00;;;;;;;-149.78;100.00;50577.06;5055350;28;20060;-63
2022/02/15 03:48:15;;;;;;;6.95;1.90;;;;;;;-149.78;100.00;50549.69;5053826;28;20072;-63
2022/02/15 03:50:40;;;;;;;7.82;1.98;;;;;;;-149.78;100.00;50555.53;5054953;28;20029;-63
2022/02/15 03:53:06;;;;;;;10.95;3.17;;;;;;;-149.78;100.00;50545.75;5054985;28;20039;-63
2022/02/15 03:55:32;;;;;;;8.88;1.80;;;;;;;-149.78;100.00;50537.94;5054705;28;20028;-63
2022/02/15 03:57:58;;;;;;;5.90;1.70;;;;;;;-149.78;100.00;50557.50;5055099;28;20411;-63
2022/02/15 04:00:23;;;;;;;6.75;1.95;;;;;;;-149.78;100.00;50545.75;5054663;28;20059;-63
2022/02/15 04:02:49;;;;;;;8.80;1.52;;;;;;;-149.78;100.00;50539.91;5054621;28;20061;-63
2022/02/15 04:05:15;;;;;;;5.25;1.80;;;;;;;-149.78;100.00;50549.69;5054908;28;20453;-63
2022/02/15 04:07:40;;;;;;;7.85;2.00;;;;;;;-149.78;100.00;50526.22;5053491;28;20045;-63
2022/02/15 04:10:07;;;;;;;7.90;1.52;;;;;;;-149.78;100.00;50559.47;5054525;28;20039;-63
2022/02/15 04:12:33;;;;;;;4.18;1.60;;;;;;;-149.78;100.00;50534.03;5054480;28;20376;-63
2022/02/15 04:14:58;;;;;;;4.95;1.60;;;;;;;-149.78;100.00;50561.41;5054520;28;20039;-63
2022/02/15 04:17:24;;;;;;;4.88;1.55;;;;;;;-149.78;100.00;50547.72;5045392;28;20464;-63
2022/02/15 04:19:50;;;;;;;3.45;1.25;;;;;;;-149.78;100.00;50563.38;5048921;28;20039;-63
2022/02/15 04:22:16;;;;;;;10.48;1.75;;;;;;;-149.78;100.00;50549.69;5052451;28;20579;-63
2022/02/15 04:24:41;;;;;;;6.22;1.30;;;;;;;-149.78;100.00;50577.06;5054192;28;20094;-63
2022/02/15 04:27:07;;;;;;;7.25;1.50;;;;;;;-149.78;100.00;50565.31;5054464;28;20404;-63
2022/02/15 04:29:33;;;;;;;8.25;1.58;;;;;;;-149.78;100.00;50532.06;5054147;28;20047;-63
2022/02/15 04:31:59;;;;;;;7.45;1.38;;;;;;;-149.78;100.00;50545.75;5054052;28;20088;-63
2022/02/15 04:34:25;;;;;;;7.32;1.27;;;;;;;-149.78;100.00;50532.06;5053905;28;20055;-63
2022/02/15 04:36:51;;;;;;;7.18;1.50;;;;;;;-149.78;100.00;50534.03;5054267;28;20040;-63
2022/02/15 04:39:16;;;;;;;2.60;1.10;;;;;;;-149.78;100.00;50549.69;5052372;28;20033;-63
2022/02/15 04:41:43;;;;;;;7.68;1.65;;;;;;;-149.78;100.00;50573.16;5053960;28;20108;-63
2022/02/15 04:44:09;;;;;;;9.98;1.25;;;;;;;-149.78;100.00;50549.69;5036030;28;20033;-63
2022/02/15 04:46:34;;;;;;;3.17;1.30;;;;;;;-149.78;100.00;50532.06;5052735;28;20482;-63
2022/02/15 04:49:00;;;;;;;6.57;1.73;;;;;;;-149.78;100.00;50561.41;5053981;28;20029;-63
2022/02/15 04:51:26;;;;;;;4.95;1.48;;;;;;;-149.78;100.00;50549.69;5053705;28;20067;-63
2022/02/15 04:53:52;;;;;;;6.28;1.45;;;;;;;-149.78;100.00;50561.41;5053796;28;20120;-63
2022/02/15 04:56:18;;;;;;;15.15;1.50;;;;;;;-149.78;100.00;50549.69;5052521;28;20115;-63
2022/02/15 04:58:44;;;;;;;4.95;1.27;;;;;;;-149.78;100.00;50537.94;5053836;28;20064;-63
2022/02/15 05:01:14;;;;;;;6.88;2.35;;;;;;;-149.78;100.00;50534.03;5053481;28;20094;-63
2022/02/15 05:03:40;;;;;;;9.13;1.95;;;;;;;-149.78;100.00;50526.22;5053408;28;20464;-63
2022/02/15 05:06:06;;;;;;;12.43;2.83;;;;;;;-149.78;100.00;50577.06;5053690;28;20052;-63
2022/02/15 05:08:31;;;;;;;4.13;1.40;;;;;;;-149.78;100.00;50537.94;5053653;28;20041;-63
2022/02/15 05:10:57;;;;;;;11.15;1.73;;;;;;;-149.78;100.00;50551.63;5053479;28;20048;-63
2022/02/15 05:13:23;;;;;;;7.95;1.85;;;;;;;-149.78;100.00;50555.53;5053060;28;20040;-63
2022/02/15 05:15:49;;;;;;;7.85;1.58;;;;;;;-149.78;100.00;50518.38;5053485;28;20493;-63
2022/02/15 05:18:15;;;;;;;9.95;1.52;;;;;;;-149.78;100.00;50537.94;5053614;28;20040;-63
2022/02/15 05:20:40;;;;;;;11.77;1.58;;;;;;;-149.78;100.00;50549.69;5052299;28;20427;-63
2022/02/15 05:23:07;;;;;;;6.90;1.00;;;;;;;-149.78;100.00;50545.75;5053493;28;20374;-63
2022/02/15 05:25:33;;;;;;;8.25;1.48;;;;;;;-149.78;100.00;50537.94;5053313;28;20036;-63
2022/02/15 05:27:59;;;;;;;8.68;1.40;;;;;;;-149.78;100.00;50530.13;5052739;28;20032;-63
2022/02/15 05:30:27;;;;;;;5.45;1.15;;;;;;;-149.78;100.00;50539.91;5052442;28;20553;-63
2022/02/15 05:32:53;;;;;;;8.02;1.27;;;;;;;-149.78;100.00;50526.22;5045992;28;20037;-63
2022/02/15 05:35:19;;;;;;;11.93;1.75;;;;;;;-149.78;100.00;50526.22;5032793;28;20052;-63
2022/02/15 05:37:45;;;;;;;8.85;1.27;;;;;;;-149.78;100.00;50549.69;5033221;28;20038;-63
2022/02/15 05:40:12;;;;;;;6.60;1.40;;;;;;;-149.78;100.00;50510.56;5032910;28;20046;-63
2022/02/15 05:42:39;;;;;;;3.42;1.20;;;;;;;-149.78;100.00;50549.69;5032708;28;20554;-62
2022/02/15 05:45:06;;;;;;;6.68;1.17;;;;;;;-149.78;100.00;50534.03;5032699;28;20032;-62
2022/02/15 05:47:32;;;;;;;9.20;1.23;;;;;;;-149.78;100.00;50573.16;5043952;28;20033;-63
2022/02/15 05:52:41;;;;;;;7.10;1.90;;;;;;;-149.78;100.00;50534.03;5052682;28;20407;-62
2022/02/15 05:55:08;;;;;;;9.25;1.60;;;;;;;-149.78;100.00;50541.84;5052464;28;20037;-63
2022/02/15 05:57:34;;;;;;;6.72;1.30;;;;;;;-149.78;100.00;50547.72;5052667;28;20075;-62
2022/02/15 06:00:00;;;;;;;6.72;1.60;;;;;;;-149.78;100.00;50541.84;5052549;28;20094;-62
2022/02/15 06:02:26;;;;;;;7.18;1.50;;;;;;;-149.78;100.00;50530.13;5052474;28;20037;-62
2022/02/15 06:04:54;;;;;;;9.73;1.60;;;;;;;-149.78;100.00;50553.59;5052463;28;20108;-62
2022/02/15 06:07:20;;;;;;;6.60;1.88;;;;;;;-149.78;100.00;50537.94;5052562;28;20041;-62
2022/02/15 06:09:45;;;;;;;6.90;2.25;;;;;;;-149.78;100.00;50510.56;5052323;28;20032;-62
2022/02/15 06:12:11;;;;;;;5.93;2.20;;;;;;;-149.78;100.00;50520.34;5052860;28;20099;-62
2022/02/15 06:14:37;;;;;;;8.50;1.85;;;;;;;-149.78;100.00;50518.38;5052300;28;20423;-62
2022/02/15 06:17:03;;;;;;;4.88;1.55;;;;;;;-149.78;100.00;50514.47;5052447;28;20040;-62
2022/02/15 06:19:29;;;;;;;6.75;1.80;;;;;;;-149.78;100.00;50551.63;5052246;28;20508;-62
2022/02/15 06:21:54;;;;;;;8.57;1.85;;;;;;;-149.78;100.00;50584.88;5052353;28;20082;-63
2022/02/15 06:24:23;;;;;;;6.30;1.88;;;;;;;-149.78;100.00;50522.28;5052002;28;20124;-63
2022/02/15 06:26:49;;;;;;;13.27;2.10;;;;;;;-149.78;100.00;50557.50;5052299;28;20060;-63
2022/02/15 06:29:15;;;;;;;5.60;2.08;;;;;;;-149.78;100.00;50545.75;5052038;28;20558;-63
2022/02/15 06:31:41;;;;;;;5.60;1.52;;;;;;;-149.78;100.00;50510.56;5052498;28;20057;-64
2022/02/15 06:34:06;;;;;;;6.20;1.80;;;;;;;-149.78;100.00;50547.72;5052535;28;20037;-63
2022/02/15 06:36:33;;;;;;;10.25;2.00;;;;;;;-149.78;100.00;50524.25;5052562;28;20129;-64
2022/02/15 06:38:59;;;;;;;4.55;2.28;;;;;;;-149.78;100.00;50526.22;5051651;28;20116;-64
2022/02/15 06:41:25;;;;;;;11.48;2.72;;;;;;;-149.78;100.00;50522.28;5055900;28;20623;-64
2022/02/15 06:43:51;;;;;;;9.15;2.33;;;;;;;-149.78;100.00;50557.50;5056181;28;20116;-64
2022/02/15 06:46:17;;;;;;;6.38;2.00;;;;;;;-149.78;100.00;50537.94;5056183;28;20091;-64
2022/02/15 06:48:42;;;;;;;7.75;2.13;;;;;;;-149.78;100.00;50537.94;5055735;28;20439;-64
2022/02/15 06:51:08;;;;;;;7.70;2.38;;;;;;;-149.78;100.00;50541.84;5055656;28;20041;-64
2022/02/15 06:53:34;;;;;;;5.85;2.17;;;;;;;-149.78;100.00;50565.31;5055932;28;20116;-64
2022/02/15 06:56:00;;;;;;;8.23;2.40;;;;;;;-149.78;100.00;50561.41;5055988;28;20041;-64
2022/02/15 06:58:25;;;;;;;8.63;2.72;;;;;;;-149.78;100.00;50530.13;5043140;28;20048;-64
2022/02/15 07:00:51;;;;;;;10.75;2.97;;;;;;;-149.78;100.00;50545.75;5036114;28;20440;-64
2022/02/15 07:03:17;;;;;;;13.50;2.70;;;;;;;-149.78;100.00;50518.38;5036004;28;20365;-64
2022/02/15 07:05:43;;;;;;;9.30;2.45;;;;;;;-149.78;100.00;50526.22;5035853;28;20041;-64
2022/02/15 07:08:09;;;;;;;12.23;2.53;;;;;;;-149.78;100.00;50534.03;5035728;28;20523;-64
2022/02/15 07:10:36;;;;;;;9.88;2.35;;;;;;;-149.78;100.00;50541.84;5036620;28;20113;-64
2022/02/15 07:13:02;;;;;;;7.35;2.03;;;;;;;-149.78;100.00;50532.06;5040786;28;20033;-64
2022/02/15 07:15:29;;;;;;;10.27;2.58;;;;;;;-149.78;100.00;50518.38;5055493;28;20037;-64
2022/02/15 07:17:57;;;;;;;9.82;2.33;;;;;;;-149.78;100.00;50534.03;5055703;28;20047;-64
2022/02/15 07:20:22;;;;;;;10.98;2.28;;;;;;;-149.78;100.00;50491.00;5055562;28;20438;-64
2022/02/15 07:22:48;;;;;;;7.10;2.40;;;;;;;-149.78;100.00;50530.13;5043621;28;20057;-63
2022/02/15 07:25:14;;;;;;;8.25;2.42;;;;;;;-149.78;100.00;50510.56;5037446;28;20033;-64
2022/02/15 07:27:40;;;;;;;5.15;2.10;;;;;;;-149.78;100.00;50534.03;5052702;28;20056;-64
2022/02/15 07:30:07;;;;;;;7.43;2.15;;;;;;;-149.78;100.00;50551.63;5054831;28;20079;-64
2022/02/15 07:32:33;;;;;;;6.55;2.28;;;;;;;-149.78;100.00;50522.28;5053923;28;20053;-63
2022/02/15 07:34:59;;;;;;;10.00;2.33;;;;;;;-149.78;100.00;50545.75;5053638;28;20041;-64
2022/02/15 07:37:26;;;;;;;8.20;2.42;;;;;;;-149.78;100.00;50506.66;5054056;28;20041;-63
2022/02/15 07:39:52;;;;;;;5.03;2.25;;;;;;;-149.78;100.00;50530.13;5053893;28;20396;-63
2022/02/15 07:42:18;;;;;;;12.65;2.30;;;;;;;-149.78;100.00;50592.72;5055122;28;20467;-63
2022/02/15 07:44:44;;;;;;;5.78;2.33;;;;;;;-149.78;100.00;50545.75;5039298;28;20059;-63
2022/02/15 07:47:10;;;;;;;6.13;2.47;;;;;;;-149.78;100.00;50539.91;5043148;28;20095;-64
2022/02/15 07:49:35;;;;;;;8.00;2.75;;;;;;;-149.78;100.00;50565.31;5055026;28;20115;-64
2022/02/15 07:52:02;;;;;;;8.98;2.50;;;;;;;-149.78;100.00;50528.16;5054136;28;20422;-64
2022/02/15 07:54:27;;;;;;;7.28;2.53;;;;;;;-149.78;100.00;50510.56;5054891;28;20044;-64
2022/02/15 07:56:53;;;;;;;6.45;2.75;;;;;;;-149.78;100.00;50526.22;5054913;28;20472;-64
2022/02/15 07:59:19;;;;;;;6.43;2.50;;;;;;;-149.78;100.00;50537.94;5054828;28;20350;-63
2022/02/15 08:01:44;;;;;;;11.00;3.13;;;;;;;-149.78;100.00;50530.13;5054898;28;20420;-63
2022/02/15 08:04:13;;;;;;;5.78;2.80;;;;;;;-149.78;100.00;50551.63;5054690;28;20109;-64
2022/02/15 08:06:43;;;;;;;6.00;2.38;;;;;;;-149.78;100.00;50502.75;5036455;28;20120;-63
2022/02/15 08:09:14;;;;;;;9.88;2.63;;;;;;;-149.78;100.00;50514.47;5036450;28;20035;-64
2022/02/15 08:11:41;;;;;;;;;;;;;;;-149.78;100.00;50500.78;5040759;28;20029;-64
2022/02/15 08:14:07;;;;;;;9.73;2.40;;;;;;;-149.78;100.00;50545.75;5046053;28;19917;-64
2022/02/15 08:16:34;;;;;;;9.93;2.97;;;;;;;-149.78;100.00;50479.28;5045289;28;20030;-64
2022/02/15 08:19:00;;;;;;;7.05;2.83;;;;;;;-149.78;100.00;50491.00;5044321;28;20377;-63
2022/02/15 08:21:25;;;;;;;7.65;2.53;;;;;;;-149.78;100.00;50522.28;5040066;28;20033;-63
2022/02/15 08:23:51;;;;;;;7.20;2.67;;;;;;;-149.78;100.00;50514.47;5044153;28;20068;-63
2022/02/15 08:26:19;;;;;;;5.32;2.45;;;;;;;-149.78;100.00;50510.56;5038204;28;20116;-62
2022/02/15 08:28:46;;;;;;;5.70;2.50;;;;;;;-149.78;100.00;50518.38;5049405;28;20037;-63
2022/02/15 08:31:12;;;;;;;6.72;2.70;;;;;;;-149.78;100.00;50534.03;5035906;28;20479;-63
2022/02/15 08:33:39;;;;;;;5.30;2.22;;;;;;;-149.78;100.00;50518.38;5033873;28;20045;-63
2022/02/15 08:36:05;;;;;;;3.75;2.08;;;;;;;-149.78;100.00;50518.38;5036257;28;20040;-63
2022/02/15 08:38:33;;;;;;;4.35;2.30;;;;;;;-149.78;100.00;50541.84;5041376;28;20056;-62
2022/02/15 08:41:02;;;;;;;5.00;2.20;;;;;;;-149.78;100.00;50506.66;5034027;28;20033;-63
2022/02/15 08:43:28;;;;;;;4.38;1.80;;;;;;;-149.78;100.00;50514.47;5042892;28;20040;-63
2022/02/15 08:45:54;;;;;;;3.63;2.28;;;;;;;-149.78;100.00;50514.47;5033835;28;20026;-63
2022/02/15 08:48:20;;;;;;;4.30;2.08;;;;;;;-149.78;100.00;50520.34;5035879;28;20091;-63
2022/02/15 08:50:46;;;;;;;2.60;1.73;;;;;;;-149.78;100.00;50534.03;5037214;28;20402;-63
2022/02/15 08:53:11;;;;;;;3.88;1.83;;;;;;;-149.78;100.00;50530.13;5040412;28;20047;-63
2022/02/15 08:55:37;;;;;;;6.10;1.92;;;;;;;-149.78;100.00;50514.47;5033696;28;20446;-63
2022/02/15 08:58:03;;;;;;;2.60;1.65;;;;;;;-149.78;100.00;50516.44;5036519;28;20068;-63
2022/02/15 09:00:29;;;;;;;4.15;1.80;;;;;;;-149.78;100.00;50526.22;5041877;28;20037;-63
2022/02/15 09:02:55;;;;;;;4.32;2.00;;;;;;;-149.78;100.00;50477.31;5038414;28;20049;-63
2022/02/15 09:05:21;;;;;;;4.22;1.50;;;;;;;-149.78;100.00;50502.75;5034388;28;20033;-62
2022/02/15 09:07:48;;;;;;;6.28;1.58;;;;;;;-149.78;100.00;50502.75;5035023;28;20033;-63
2022/02/15 09:10:14;;;;;;;2.55;1.40;;;;;;;-149.78;100.00;50506.66;5038588;28;20041;-63
2022/02/15 09:12:40;;;;;;;3.42;1.55;;;;;;;-149.78;100.00;50510.56;5039651;28;20038;-63
2022/02/15 09:15:09;;;;;;;6.18;1.80;;;;;;;-149.78;100.00;50467.53;5039412;28;20056;-63
2022/02/15 09:17:39;;;;;;;6.47;1.90;;;;;;;-149.78;100.00;50526.22;5039661;28;20045;-62
2022/02/15 09:20:06;;;;;;;6.15;2.05;;;;;;;-149.78;100.00;50520.34;5041402;28;20033;-62
2022/02/15 09:22:32;;;;;;;3.35;1.63;;;;;;;-149.78;100.00;50483.19;5038817;28;20033;-62
2022/02/15 09:24:58;;;;;;;6.85;2.33;;;;;;;-149.78;100.00;50491.00;5047568;28;20038;-63
2022/02/15 09:27:26;;;;;;;8.18;2.35;;;;;;;-149.78;100.00;50506.66;5042364;28;20120;-62
2022/02/15 09:29:53;;;;;;;3.92;2.17;;;;;;;-149.78;100.00;50539.91;5036906;28;20042;-63
2022/02/15 09:32:19;;;;;;;4.57;2.30;;;;;;;-149.78;100.00;50487.09;5038882;28;20061;-63
2022/02/15 09:34:46;;;;;;;5.82;2.33;;;;;;;-149.78;100.00;50483.19;5039782;28;20025;-63
2022/02/15 09:37:11;;;;;;;4.38;2.42;;;;;;;-149.78;100.00;50506.66;5040122;28;20043;-63
2022/02/15 09:39:37;;;;;;;8.13;2.28;;;;;;;-149.78;100.00;50502.75;5040885;28;20053;-63
2022/02/15 09:42:03;;;;;;;5.82;2.35;;;;;;;-149.78;100.00;50528.16;5043353;28;20105;-64
2022/02/15 09:44:29;;;;;;;3.95;1.90;;;;;;;-149.78;100.00;50467.53;5041411;28;20022;-64
2022/02/15 09:46:55;;;;;;;6.25;2.03;;;;;;;-149.78;100.00;50528.16;5037646;28;20039;-64
2022/02/15 09:52:11;;;;;;;7.28;2.00;;;;;;;-149.78;100.00;50494.91;5042391;28;20033;-64
2022/02/15 09:54:39;;;;;;;6.22;2.50;;;;;;;-149.78;100.00;50479.28;5040047;28;20088;-63
2022/02/15 09:57:04;;;;;;;7.55;2.10;;;;;;;-149.78;100.00;50526.22;5037279;28;20025;-64
2022/02/15 09:59:30;;;;;;;3.67;1.88;;;;;;;-149.78;100.00;50469.50;5034766;28;20051;-64
2022/02/15 10:01:56;;;;;;;5.15;2.30;;;;;;;-149.78;100.00;50502.75;5037598;28;20026;-63
2022/02/15 10:04:32;;;;;;;4.45;2.10;;;;;;;-149.78;100.00;50514.47;5042735;28;20041;-64
2022/02/15 10:06:58;;;;;;;7.72;2.10;;;;;;;-149.78;100.00;50524.25;5039932;28;20048;-64
2022/02/15 10:09:27;;;;;;;6.00;2.08;;;;;;;-149.78;100.00;50487.09;5035633;28;20496;-65
2022/02/15 10:11:53;;;;;;;4.00;2.10;;;;;;;-149.78;100.00;50487.09;5038377;28;20381;-64
2022/02/15 10:14:20;;;;;;;10.45;2.30;;;;;;;-149.78;100.00;50506.66;5032192;28;20122;-63
2022/02/15 10:16:50;;;;;;;5.28;2.40;;;;;;;-149.78;100.00;50455.81;5039096;28;20449;-64
2022/02/15 10:19:28;;;;;;;6.38;2.20;;;;;;;-149.78;100.00;50489.03;5049834;28;20025;-64
2022/02/15 10:21:58;;;;;;;7.07;2.55;;;;;;;-149.78;100.00;50506.66;5038311;28;20091;-64
2022/02/15 10:24:26;;;;;;;7.68;2.58;;;;;;;-149.78;100.00;50518.38;5041333;28;20117;-64
2022/02/15 10:27:03;;;;;;;7.07;2.38;;;;;;;-149.78;100.00;50510.56;5043244;28;20095;-64
2022/02/15 10:29:37;;;;;;;4.75;2.05;;;;;;;-149.78;100.00;50526.22;5039295;28;20113;-63
2022/02/15 10:32:05;;;;;;;10.13;2.38;;;;;;;-149.78;100.00;50494.91;5037714;28;20071;-64
2022/02/15 10:34:31;;;;;;;4.32;2.03;;;;;;;-149.78;100.00;50500.78;5036056;28;20056;-63
2022/02/15 10:37:06;;;;;;;7.85;2.50;;;;;;;-149.78;100.00;50494.91;5044825;28;20029;-63
2022/02/15 10:39:45;;;;;;;9.50;2.47;;;;;;;-149.78;100.00;50479.28;5036350;28;20056;-64
2022/02/15 10:42:12;;;;;;;8.50;2.47;;;;;;;-149.78;100.00;50506.66;5037845;28;20110;-63
2022/02/15 10:44:52;;;;;;;11.43;2.08;;;;;;;-149.78;100.00;50487.09;5035849;28;20036;-64
2022/02/15 10:47:19;;;;;;;14.85;2.60;;;;;;;-149.78;100.00;50502.75;5036121;28;20035;-63
2022/02/15 10:49:45;;;;;;;10.65;2.15;;;;;;;-149.78;100.00;50506.66;5030958;28;20049;-64
2022/02/15 10:52:11;;;;;;;10.52;2.28;;;;;;;-149.78;100.00;50426.47;5033084;28;20045;-62
2022/02/15 10:54:40;;;;;;;14.00;2.80;;;;;;;-149.78;100.00;50463.63;5041091;28;20037;-63
2022/02/15 10:57:12;;;;;;;13.55;3.55;;;;;;;-149.78;100.00;50491.00;5043490;28;20044;-63
2022/02/15 10:59:41;;;;;;;15.73;2.88;;;;;;;-149.78;100.00;50494.91;5044687;28;20029;-63
2022/02/15 11:02:13;;;;;;;16.58;2.90;;;;;;;-149.78;100.00;50483.19;5039949;28;20484;-63
2022/02/15 11:04:40;;;;;;;;;;;;;;;-149.78;100.00;50491.00;5036867;28;20033;-64
2022/02/15 11:07:09;;;;;;;12.13;2.83;;;;;;;-149.78;100.00;50498.81;5035863;28;20340;-63
2022/02/15 11:09:45;;;;;;;9.35;2.67;;;;;;;-149.78;100.00;50483.19;5042539;28;20444;-64
2022/02/15 11:12:28;;;;;;;6.35;2.53;;;;;;;-149.78;100.00;50440.16;5055823;28;20497;-63
2022/02/15 11:15:01;;;;;;;11.50;3.17;;;;;;;-149.78;100.00;50485.13;5054857;28;20377;-63